Fykan — LLDJ — position and weather

sailwx.info

Track history (hours):
 
Tides and Currents Weather Stations Pressure Air Temp Water Temp Dewpoint Dewpoint Depression Visibility Wind Speed Wind Dir Waves Ship Positions

Fykan

Last reported at 2014-Aug-28 10:32 UTC. Time now 2014-Aug-28 13:26 UTC.
Position N 66°34' E 012°53'.

Length 52 m; draft 3.3 m.

Type: Ship. MMSI: 259681000.

Date/timePositionNaut miles runAvg speedWind from/ knotsBaromVisibWave heightAir tempDewpointWater temp
2014-Aug-28 10:32N 66°34' E 012°53'3 0.7
2014-Aug-28 06:22N 66°36' E 012°59'4 5.1
2014-Aug-28 05:34N 66°34' E 012°50'0 0.0
2014-Aug-27 20:24N 66°34' E 012°50'4 0.7
2014-Aug-27 14:27N 66°36' E 012°59'5 5.5
2014-Aug-27 13:33N 66°34' E 012°48'0 0.2
2014-Aug-27 10:29N 66°34' E 012°49'5 1.1
2014-Aug-27 06:21N 66°36' E 012°59'4 5.0
2014-Aug-27 05:32N 66°34' E 012°50'1 0.1
2014-Aug-26 20:27N 66°34' E 012°49'1 0.2
2014-Aug-26 16:22N 66°34' E 012°50'0 0.0
2014-Aug-26 10:25N 66°34' E 012°50'5 5.5
2014-Aug-26 09:33N 66°37' E 012°59'1 0.2
2014-Aug-26 05:07N 66°36' E 012°59'5 6.6
2014-Aug-26 04:26N 66°34' E 012°49'3 0.3
2014-Aug-25 18:31N 66°35' E 012°42'7 6.6
2014-Aug-25 17:31N 66°35' E 012°59'5 2.3
2014-Aug-25 15:16N 66°38' E 013°08'4 5.1
2014-Aug-25 14:24N 66°36' E 012°59'5 6.0
2014-Aug-25 13:34N 66°34' E 012°47'3 1.4
2014-Aug-25 11:31N 66°36' E 012°41'7 6.6
2014-Aug-25 10:28N 66°34' E 012°59'2 0.4
2014-Aug-25 06:20N 66°36' E 012°59'4 5.2
2014-Aug-25 05:31N 66°34' E 012°50'9 0.8
2014-Aug-24 18:27N 66°35' E 013°12'4 3.7
2014-Aug-24 17:25N 66°32' E 013°13'8 4.1
2014-Aug-24 15:32N 66°37' E 012°59'5 5.1
2014-Aug-24 14:33N 66°34' E 012°50'2 0.0
2014-Aug-22 20:33N 66°34' E 012°47'2 0.4
2014-Aug-22 16:22N 66°34' E 012°50'1 0.1
2014-Aug-22 10:30N 66°34' E 012°49'5 0.9
2014-Aug-22 05:09N 66°36' E 012°59'5 6.5
2014-Aug-22 04:27N 66°34' E 012°49'3 0.3
2014-Aug-21 18:15N 66°35' E 012°42'11 3.8
2014-Aug-21 15:18N 66°38' E 013°09'5 5.5
2014-Aug-21 14:28N 66°36' E 012°59'5 5.5
2014-Aug-21 13:34N 66°34' E 012°48'3 1.1
2014-Aug-21 11:10N 66°35' E 012°42'5 7.2
2014-Aug-21 10:32N 66°34' E 012°53'3 0.7
2014-Aug-21 06:21N 66°36' E 012°59'4 5.0
2014-Aug-21 05:32N 66°34' E 012°50'1 0.1
2014-Aug-20 20:28N 66°34' E 012°52'3 0.5
2014-Aug-20 14:33N 66°36' E 012°59'6 5.5
2014-Aug-20 13:32N 66°35' E 012°45'1 0.4
2014-Aug-20 10:32N 66°34' E 012°48'7 5.1
2014-Aug-20 09:07N 66°39' E 013°01'2 0.7
2014-Aug-20 06:29N 66°37' E 012°59'5 5.3
2014-Aug-20 05:34N 66°34' E 012°50'1 0.1
2014-Aug-19 20:33N 66°34' E 012°48'7 6.7
2014-Aug-19 19:29N 66°39' E 013°01'2 0.8
2014-Aug-19 17:08N 66°37' E 012°59'4 5.5
2014-Aug-19 16:23N 66°34' E 012°52'4 0.9
2014-Aug-19 11:09N 66°36' E 012°41'6 7.5
2014-Aug-19 10:20N 66°34' E 012°56'4 0.8
2014-Aug-19 05:31N 66°37' E 012°59'5 5.2
2014-Aug-19 04:33N 66°34' E 012°50'4 0.4
2014-Aug-18 18:10N 66°36' E 012°41'7 9.2
2014-Aug-18 17:23N 66°37' E 012°59'1 0.4
2014-Aug-18 14:26N 66°36' E 012°59'5 5.8
2014-Aug-18 13:32N 66°34' E 012°47'3 1.3
2014-Aug-18 11:31N 66°36' E 012°41'  
Track history (hours):
 
Tides and Currents Weather Stations Pressure Air Temp Water Temp Dewpoint Dewpoint Depression Visibility Wind Speed Wind Dir Waves Ship Positions

Fykan

Last reported at 2014-Aug-28 10:32 UTC. Time now 2014-Aug-28 13:26 UTC.
Position N 66°34' E 012°53'.

Length 52 m; draft 3.3 m.

Type: Ship. MMSI: 259681000.

Date/timePositionNaut miles runAvg speedWind from/ knotsBaromVisibWave heightAir tempDewpointWater temp
2014-Aug-28 10:32N 66°34' E 012°53'3 0.7
2014-Aug-28 06:22N 66°36' E 012°59'4 5.1
2014-Aug-28 05:34N 66°34' E 012°50'0 0.0
2014-Aug-27 20:24N 66°34' E 012°50'4 0.7
2014-Aug-27 14:27N 66°36' E 012°59'5 5.5
2014-Aug-27 13:33N 66°34' E 012°48'0 0.2
2014-Aug-27 10:29N 66°34' E 012°49'5 1.1
2014-Aug-27 06:21N 66°36' E 012°59'4 5.0
2014-Aug-27 05:32N 66°34' E 012°50'1 0.1
2014-Aug-26 20:27N 66°34' E 012°49'1 0.2
2014-Aug-26 16:22N 66°34' E 012°50'0 0.0
2014-Aug-26 10:25N 66°34' E 012°50'5 5.5
2014-Aug-26 09:33N 66°37' E 012°59'1 0.2
2014-Aug-26 05:07N 66°36' E 012°59'5 6.6
2014-Aug-26 04:26N 66°34' E 012°49'3 0.3
2014-Aug-25 18:31N 66°35' E 012°42'7 6.6
2014-Aug-25 17:31N 66°35' E 012°59'5 2.3
2014-Aug-25 15:16N 66°38' E 013°08'4 5.1
2014-Aug-25 14:24N 66°36' E 012°59'5 6.0
2014-Aug-25 13:34N 66°34' E 012°47'3 1.4
2014-Aug-25 11:31N 66°36' E 012°41'7 6.6
2014-Aug-25 10:28N 66°34' E 012°59'2 0.4
2014-Aug-25 06:20N 66°36' E 012°59'4 5.2
2014-Aug-25 05:31N 66°34' E 012°50'9 0.8
2014-Aug-24 18:27N 66°35' E 013°12'4 3.7
2014-Aug-24 17:25N 66°32' E 013°13'8 4.1
2014-Aug-24 15:32N 66°37' E 012°59'5 5.1
2014-Aug-24 14:33N 66°34' E 012°50'2 0.0
2014-Aug-22 20:33N 66°34' E 012°47'2 0.4
2014-Aug-22 16:22N 66°34' E 012°50'1 0.1
2014-Aug-22 10:30N 66°34' E 012°49'5 0.9
2014-Aug-22 05:09N 66°36' E 012°59'5 6.5
2014-Aug-22 04:27N 66°34' E 012°49'3 0.3
2014-Aug-21 18:15N 66°35' E 012°42'11 3.8
2014-Aug-21 15:18N 66°38' E 013°09'5 5.5
2014-Aug-21 14:28N 66°36' E 012°59'5 5.5
2014-Aug-21 13:34N 66°34' E 012°48'3 1.1
2014-Aug-21 11:10N 66°35' E 012°42'5 7.2
2014-Aug-21 10:32N 66°34' E 012°53'3 0.7
2014-Aug-21 06:21N 66°36' E 012°59'4 5.0
2014-Aug-21 05:32N 66°34' E 012°50'1 0.1
2014-Aug-20 20:28N 66°34' E 012°52'3 0.5
2014-Aug-20 14:33N 66°36' E 012°59'6 5.5
2014-Aug-20 13:32N 66°35' E 012°45'1 0.4
2014-Aug-20 10:32N 66°34' E 012°48'7 5.1
2014-Aug-20 09:07N 66°39' E 013°01'2 0.7
2014-Aug-20 06:29N 66°37' E 012°59'5 5.3
2014-Aug-20 05:34N 66°34' E 012°50'1 0.1
2014-Aug-19 20:33N 66°34' E 012°48'7 6.7
2014-Aug-19 19:29N 66°39' E 013°01'2 0.8
2014-Aug-19 17:08N 66°37' E 012°59'4 5.5
2014-Aug-19 16:23N 66°34' E 012°52'4 0.9
2014-Aug-19 11:09N 66°36' E 012°41'6 7.5
2014-Aug-19 10:20N 66°34' E 012°56'4 0.8
2014-Aug-19 05:31N 66°37' E 012°59'5 5.2
2014-Aug-19 04:33N 66°34' E 012°50'4 0.4
2014-Aug-18 18:10N 66°36' E 012°41'7 9.2
2014-Aug-18 17:23N 66°37' E 012°59'1 0.4
2014-Aug-18 14:26N 66°36' E 012°59'5 5.8
2014-Aug-18 13:32N 66°34' E 012°47'3 1.3
2014-Aug-18 11:31N 66°36' E 012°41'  

Dump ship's entire track history